sensor_id;sensor_type;location;lat;lon;timestamp;P1;durP1;ratioP1;P2;durP2;ratioP2
45316;SDS011;31053;55.870;37.592;2022-12-07T00:02:01;6.55;;;2.47;;
45316;SDS011;31053;55.870;37.592;2022-12-07T00:05:26;8.10;;;2.22;;
45316;SDS011;31053;55.870;37.592;2022-12-07T00:08:37;5.38;;;2.05;;
45316;SDS011;31053;55.870;37.592;2022-12-07T00:11:52;6.95;;;2.28;;
45316;SDS011;31053;55.870;37.592;2022-12-07T00:14:57;4.78;;;2.25;;
45316;SDS011;31053;55.870;37.592;2022-12-07T00:18:07;5.90;;;2.67;;
45316;SDS011;31053;55.870;37.592;2022-12-07T00:21:16;5.57;;;2.20;;
45316;SDS011;31053;55.870;37.592;2022-12-07T00:24:27;11.68;;;3.50;;
45316;SDS011;31053;55.870;37.592;2022-12-07T00:27:38;9.57;;;2.63;;
45316;SDS011;31053;55.870;37.592;2022-12-07T00:30:49;6.07;;;2.45;;
45316;SDS011;31053;55.870;37.592;2022-12-07T00:34:23;8.57;;;2.47;;
45316;SDS011;31053;55.870;37.592;2022-12-07T00:37:31;8.55;;;2.95;;
45316;SDS011;31053;55.870;37.592;2022-12-07T00:40:40;5.95;;;2.28;;
45316;SDS011;31053;55.870;37.592;2022-12-07T00:46:54;13.10;;;2.92;;
45316;SDS011;31053;55.870;37.592;2022-12-07T00:50:00;7.38;;;2.67;;
45316;SDS011;31053;55.870;37.592;2022-12-07T00:53:05;8.60;;;2.67;;
45316;SDS011;31053;55.870;37.592;2022-12-07T00:56:15;5.22;;;2.28;;
45316;SDS011;31053;55.870;37.592;2022-12-07T00:59:42;13.93;;;3.92;;
45316;SDS011;31053;55.870;37.592;2022-12-07T01:02:56;8.23;;;3.00;;
45316;SDS011;31053;55.870;37.592;2022-12-07T01:06:09;9.55;;;3.80;;
45316;SDS011;31053;55.870;37.592;2022-12-07T01:09:21;9.93;;;2.83;;
45316;SDS011;31053;55.870;37.592;2022-12-07T01:12:31;8.35;;;3.05;;
45316;SDS011;31053;55.870;37.592;2022-12-07T01:15:43;7.85;;;2.50;;
45316;SDS011;31053;55.870;37.592;2022-12-07T01:18:49;6.15;;;2.47;;
45316;SDS011;31053;55.870;37.592;2022-12-07T01:22:00;4.57;;;2.30;;
45316;SDS011;31053;55.870;37.592;2022-12-07T01:25:10;6.88;;;2.28;;
45316;SDS011;31053;55.870;37.592;2022-12-07T01:28:51;5.80;;;2.55;;
45316;SDS011;31053;55.870;37.592;2022-12-07T01:32:09;7.93;;;3.15;;
45316;SDS011;31053;55.870;37.592;2022-12-07T01:35:33;7.55;;;2.85;;
45316;SDS011;31053;55.870;37.592;2022-12-07T01:38:40;9.13;;;3.13;;
45316;SDS011;31053;55.870;37.592;2022-12-07T01:41:55;8.77;;;2.83;;
45316;SDS011;31053;55.870;37.592;2022-12-07T01:48:26;6.35;;;2.78;;
45316;SDS011;31053;55.870;37.592;2022-12-07T01:51:46;6.60;;;2.45;;
45316;SDS011;31053;55.870;37.592;2022-12-07T01:54:59;9.63;;;2.67;;
45316;SDS011;31053;55.870;37.592;2022-12-07T01:58:26;6.78;;;2.42;;
45316;SDS011;31053;55.870;37.592;2022-12-07T02:01:58;7.70;;;2.88;;
45316;SDS011;31053;55.870;37.592;2022-12-07T02:05:30;11.73;;;2.47;;
45316;SDS011;31053;55.870;37.592;2022-12-07T02:11:42;6.55;;;2.35;;
45316;SDS011;31053;55.870;37.592;2022-12-07T02:14:48;9.73;;;3.03;;
45316;SDS011;31053;55.870;37.592;2022-12-07T02:33:04;9.77;;;2.95;;
45316;SDS011;31053;55.870;37.592;2022-12-07T02:36:53;8.43;;;3.58;;
45316;SDS011;31053;55.870;37.592;2022-12-07T02:44:02;11.95;;;2.40;;
45316;SDS011;31053;55.870;37.592;2022-12-07T02:47:32;8.02;;;3.28;;
45316;SDS011;31053;55.870;37.592;2022-12-07T02:51:09;9.20;;;3.92;;
45316;SDS011;31053;55.870;37.592;2022-12-07T02:54:42;9.20;;;3.50;;
45316;SDS011;31053;55.870;37.592;2022-12-07T03:09:39;8.55;;;2.53;;
45316;SDS011;31053;55.870;37.592;2022-12-07T03:17:12;8.82;;;3.60;;
45316;SDS011;31053;55.870;37.592;2022-12-07T03:20:33;9.70;;;3.13;;
45316;SDS011;31053;55.870;37.592;2022-12-07T03:24:29;7.45;;;2.88;;
45316;SDS011;31053;55.870;37.592;2022-12-07T03:27:57;7.32;;;2.97;;
45316;SDS011;31053;55.870;37.592;2022-12-07T03:35:03;8.88;;;2.72;;
45316;SDS011;31053;55.870;37.592;2022-12-07T03:38:33;10.20;;;3.90;;
45316;SDS011;31053;55.870;37.592;2022-12-07T03:41:45;9.80;;;2.90;;
45316;SDS011;31053;55.870;37.592;2022-12-07T03:45:45;12.07;;;3.53;;
45316;SDS011;31053;55.870;37.592;2022-12-07T03:52:33;5.72;;;2.28;;
45316;SDS011;31053;55.870;37.592;2022-12-07T03:56:03;9.00;;;2.75;;
45316;SDS011;31053;55.870;37.592;2022-12-07T03:59:32;9.77;;;3.13;;
45316;SDS011;31053;55.870;37.592;2022-12-07T04:02:42;9.68;;;3.60;;
45316;SDS011;31053;55.870;37.592;2022-12-07T04:05:55;13.75;;;3.50;;
45316;SDS011;31053;55.870;37.592;2022-12-07T04:09:07;12.88;;;3.67;;
45316;SDS011;31053;55.870;37.592;2022-12-07T04:12:14;15.73;;;3.63;;
45316;SDS011;31053;55.870;37.592;2022-12-07T04:15:20;14.77;;;3.70;;
45316;SDS011;31053;55.870;37.592;2022-12-07T04:18:35;11.93;;;3.97;;
45316;SDS011;31053;55.870;37.592;2022-12-07T04:21:51;6.97;;;3.83;;
45316;SDS011;31053;55.870;37.592;2022-12-07T04:25:41;12.70;;;4.05;;
45316;SDS011;31053;55.870;37.592;2022-12-07T04:28:54;16.75;;;4.20;;
45316;SDS011;31053;55.870;37.592;2022-12-07T04:32:28;12.20;;;4.22;;
45316;SDS011;31053;55.870;37.592;2022-12-07T04:35:49;14.45;;;3.53;;
45316;SDS011;31053;55.870;37.592;2022-12-07T04:40:10;9.50;;;3.60;;
45316;SDS011;31053;55.870;37.592;2022-12-07T04:43:53;9.38;;;3.63;;
45316;SDS011;31053;55.870;37.592;2022-12-07T04:47:23;9.30;;;3.78;;
45316;SDS011;31053;55.870;37.592;2022-12-07T04:50:31;16.50;;;4.85;;
45316;SDS011;31053;55.870;37.592;2022-12-07T04:53:50;26.67;;;4.82;;
45316;SDS011;31053;55.870;37.592;2022-12-07T04:56:55;12.47;;;4.00;;
45316;SDS011;31053;55.870;37.592;2022-12-07T05:00:00;12.48;;;4.90;;
45316;SDS011;31053;55.870;37.592;2022-12-07T05:03:08;21.33;;;4.78;;
45316;SDS011;31053;55.870;37.592;2022-12-07T05:06:49;13.55;;;3.78;;
45316;SDS011;31053;55.870;37.592;2022-12-07T05:09:53;11.20;;;4.18;;
45316;SDS011;31053;55.870;37.592;2022-12-07T05:13:02;12.20;;;4.43;;
45316;SDS011;31053;55.870;37.592;2022-12-07T05:16:12;14.82;;;5.38;;
45316;SDS011;31053;55.870;37.592;2022-12-07T05:19:26;20.58;;;5.47;;
45316;SDS011;31053;55.870;37.592;2022-12-07T05:22:33;13.18;;;4.38;;
45316;SDS011;31053;55.870;37.592;2022-12-07T05:25:38;18.33;;;4.82;;
45316;SDS011;31053;55.870;37.592;2022-12-07T05:28:43;15.48;;;5.43;;
45316;SDS011;31053;55.870;37.592;2022-12-07T05:31:47;15.57;;;4.50;;
45316;SDS011;31053;55.870;37.592;2022-12-07T05:34:52;12.70;;;4.18;;
45316;SDS011;31053;55.870;37.592;2022-12-07T05:37:58;13.60;;;4.07;;
45316;SDS011;31053;55.870;37.592;2022-12-07T05:41:04;12.05;;;3.45;;
45316;SDS011;31053;55.870;37.592;2022-12-07T05:44:09;11.63;;;4.50;;
45316;SDS011;31053;55.870;37.592;2022-12-07T05:47:14;11.45;;;4.95;;
45316;SDS011;31053;55.870;37.592;2022-12-07T05:50:19;11.40;;;4.15;;
45316;SDS011;31053;55.870;37.592;2022-12-07T05:53:38;10.65;;;4.35;;
45316;SDS011;31053;55.870;37.592;2022-12-07T05:56:42;20.52;;;5.03;;
45316;SDS011;31053;55.870;37.592;2022-12-07T05:59:47;16.27;;;4.53;;
45316;SDS011;31053;55.870;37.592;2022-12-07T06:02:52;14.35;;;4.57;;
45316;SDS011;31053;55.870;37.592;2022-12-07T06:05:57;11.85;;;4.65;;
45316;SDS011;31053;55.870;37.592;2022-12-07T06:09:02;6.80;;;3.30;;
45316;SDS011;31053;55.870;37.592;2022-12-07T06:12:09;10.97;;;4.47;;
45316;SDS011;31053;55.870;37.592;2022-12-07T06:15:36;10.93;;;4.07;;
45316;SDS011;31053;55.870;37.592;2022-12-07T06:18:43;12.15;;;4.20;;
45316;SDS011;31053;55.870;37.592;2022-12-07T06:21:48;10.35;;;4.13;;
45316;SDS011;31053;55.870;37.592;2022-12-07T06:24:55;10.43;;;4.20;;
45316;SDS011;31053;55.870;37.592;2022-12-07T06:28:03;12.23;;;4.45;;
45316;SDS011;31053;55.870;37.592;2022-12-07T06:31:08;14.70;;;4.45;;
45316;SDS011;31053;55.870;37.592;2022-12-07T06:34:20;13.07;;;4.68;;
45316;SDS011;31053;55.870;37.592;2022-12-07T06:37:31;14.23;;;5.53;;
45316;SDS011;31053;55.870;37.592;2022-12-07T06:40:40;16.38;;;5.45;;
45316;SDS011;31053;55.870;37.592;2022-12-07T06:43:53;11.80;;;4.47;;
45316;SDS011;31053;55.870;37.592;2022-12-07T06:46:58;20.23;;;5.18;;
45316;SDS011;31053;55.870;37.592;2022-12-07T06:50:03;15.18;;;5.47;;
45316;SDS011;31053;55.870;37.592;2022-12-07T06:53:21;19.13;;;5.35;;
45316;SDS011;31053;55.870;37.592;2022-12-07T06:56:26;14.00;;;5.30;;
45316;SDS011;31053;55.870;37.592;2022-12-07T06:59:32;20.10;;;4.97;;
45316;SDS011;31053;55.870;37.592;2022-12-07T07:02:40;27.15;;;5.65;;
45316;SDS011;31053;55.870;37.592;2022-12-07T07:05:49;20.48;;;6.20;;
45316;SDS011;31053;55.870;37.592;2022-12-07T07:08:59;10.50;;;4.18;;
45316;SDS011;31053;55.870;37.592;2022-12-07T07:12:05;18.33;;;6.30;;
45316;SDS011;31053;55.870;37.592;2022-12-07T07:15:10;18.77;;;5.65;;
45316;SDS011;31053;55.870;37.592;2022-12-07T07:18:20;15.65;;;5.63;;
45316;SDS011;31053;55.870;37.592;2022-12-07T07:21:25;16.10;;;6.38;;
45316;SDS011;31053;55.870;37.592;2022-12-07T07:24:33;19.63;;;5.25;;
45316;SDS011;31053;55.870;37.592;2022-12-07T07:27:40;14.43;;;5.15;;
45316;SDS011;31053;55.870;37.592;2022-12-07T07:30:48;15.52;;;5.63;;
45316;SDS011;31053;55.870;37.592;2022-12-07T07:34:49;16.08;;;5.25;;
45316;SDS011;31053;55.870;37.592;2022-12-07T07:38:02;21.48;;;6.88;;
45316;SDS011;31053;55.870;37.592;2022-12-07T07:41:23;18.65;;;5.57;;
45316;SDS011;31053;55.870;37.592;2022-12-07T07:44:28;19.63;;;7.90;;
45316;SDS011;31053;55.870;37.592;2022-12-07T07:47:50;18.83;;;6.45;;
45316;SDS011;31053;55.870;37.592;2022-12-07T07:50:57;19.63;;;6.32;;
45316;SDS011;31053;55.870;37.592;2022-12-07T07:54:05;21.52;;;6.53;;
45316;SDS011;31053;55.870;37.592;2022-12-07T07:57:10;20.08;;;7.03;;
45316;SDS011;31053;55.870;37.592;2022-12-07T08:00:25;15.10;;;5.90;;
45316;SDS011;31053;55.870;37.592;2022-12-07T08:03:34;16.42;;;6.57;;
45316;SDS011;31053;55.870;37.592;2022-12-07T08:06:41;17.42;;;4.53;;
45316;SDS011;31053;55.870;37.592;2022-12-07T08:10:00;14.98;;;5.85;;
45316;SDS011;31053;55.870;37.592;2022-12-07T08:13:16;16.30;;;5.85;;
45316;SDS011;31053;55.870;37.592;2022-12-07T08:16:32;18.13;;;6.53;;
45316;SDS011;31053;55.870;37.592;2022-12-07T08:19:43;23.63;;;5.93;;
45316;SDS011;31053;55.870;37.592;2022-12-07T08:22:54;29.65;;;6.55;;
45316;SDS011;31053;55.870;37.592;2022-12-07T08:26:01;21.13;;;6.53;;
45316;SDS011;31053;55.870;37.592;2022-12-07T08:29:14;21.08;;;6.50;;
45316;SDS011;31053;55.870;37.592;2022-12-07T08:32:22;14.95;;;6.18;;
45316;SDS011;31053;55.870;37.592;2022-12-07T08:35:32;16.63;;;5.68;;
45316;SDS011;31053;55.870;37.592;2022-12-07T08:38:41;18.75;;;6.97;;
45316;SDS011;31053;55.870;37.592;2022-12-07T08:41:54;26.83;;;6.43;;
45316;SDS011;31053;55.870;37.592;2022-12-07T08:45:01;26.23;;;6.88;;
45316;SDS011;31053;55.870;37.592;2022-12-07T08:48:13;13.10;;;5.35;;
45316;SDS011;31053;55.870;37.592;2022-12-07T08:51:18;16.77;;;6.18;;
45316;SDS011;31053;55.870;37.592;2022-12-07T08:54:35;19.48;;;5.00;;
45316;SDS011;31053;55.870;37.592;2022-12-07T08:57:51;9.32;;;3.95;;
45316;SDS011;31053;55.870;37.592;2022-12-07T09:00:58;19.27;;;6.28;;
45316;SDS011;31053;55.870;37.592;2022-12-07T09:04:03;17.40;;;6.38;;
45316;SDS011;31053;55.870;37.592;2022-12-07T09:07:19;13.82;;;4.78;;
45316;SDS011;31053;55.870;37.592;2022-12-07T09:10:31;24.60;;;5.35;;
45316;SDS011;31053;55.870;37.592;2022-12-07T09:13:37;15.88;;;5.25;;
45316;SDS011;31053;55.870;37.592;2022-12-07T09:16:50;21.25;;;7.15;;
45316;SDS011;31053;55.870;37.592;2022-12-07T09:20:05;16.88;;;6.70;;
45316;SDS011;31053;55.870;37.592;2022-12-07T09:23:13;21.83;;;5.60;;
45316;SDS011;31053;55.870;37.592;2022-12-07T09:26:24;22.65;;;7.25;;
45316;SDS011;31053;55.870;37.592;2022-12-07T09:29:29;18.30;;;5.88;;
45316;SDS011;31053;55.870;37.592;2022-12-07T09:32:43;16.35;;;5.38;;
45316;SDS011;31053;55.870;37.592;2022-12-07T09:36:06;12.77;;;4.88;;
45316;SDS011;31053;55.870;37.592;2022-12-07T09:39:28;12.50;;;5.43;;
45316;SDS011;31053;55.870;37.592;2022-12-07T09:42:36;12.05;;;4.75;;
45316;SDS011;31053;55.870;37.592;2022-12-07T09:46:05;12.32;;;5.50;;
45316;SDS011;31053;55.870;37.592;2022-12-07T09:49:20;15.60;;;5.38;;
45316;SDS011;31053;55.870;37.592;2022-12-07T09:52:30;21.00;;;6.53;;
45316;SDS011;31053;55.870;37.592;2022-12-07T09:56:03;22.85;;;6.03;;
45316;SDS011;31053;55.870;37.592;2022-12-07T10:00:43;13.43;;;5.72;;
45316;SDS011;31053;55.870;37.592;2022-12-07T10:04:16;12.40;;;4.80;;
45316;SDS011;31053;55.870;37.592;2022-12-07T10:07:26;9.95;;;4.30;;
45316;SDS011;31053;55.870;37.592;2022-12-07T10:10:41;14.43;;;5.47;;
45316;SDS011;31053;55.870;37.592;2022-12-07T10:14:10;26.48;;;5.97;;
45316;SDS011;31053;55.870;37.592;2022-12-07T10:17:56;12.43;;;4.93;;
45316;SDS011;31053;55.870;37.592;2022-12-07T10:21:59;16.25;;;5.32;;
45316;SDS011;31053;55.870;37.592;2022-12-07T10:25:34;15.68;;;5.07;;
45316;SDS011;31053;55.870;37.592;2022-12-07T10:29:32;13.07;;;4.65;;
45316;SDS011;31053;55.870;37.592;2022-12-07T10:41:05;19.05;;;5.75;;
45316;SDS011;31053;55.870;37.592;2022-12-07T10:44:37;15.73;;;4.20;;
45316;SDS011;31053;55.870;37.592;2022-12-07T10:48:29;12.73;;;5.72;;
45316;SDS011;31053;55.870;37.592;2022-12-07T11:00:25;10.40;;;4.90;;
45316;SDS011;31053;55.870;37.592;2022-12-07T11:25:30;11.90;;;4.85;;
45316;SDS011;31053;55.870;37.592;2022-12-07T11:32:59;15.32;;;5.43;;
45316;SDS011;31053;55.870;37.592;2022-12-07T11:36:53;14.48;;;6.10;;
45316;SDS011;31053;55.870;37.592;2022-12-07T11:41:10;12.10;;;4.60;;
45316;SDS011;31053;55.870;37.592;2022-12-07T11:44:06;13.70;;;4.85;;
45316;SDS011;31053;55.870;37.592;2022-12-07T11:47:30;11.48;;;4.80;;
45316;SDS011;31053;55.870;37.592;2022-12-07T11:59:59;23.92;;;4.72;;
45316;SDS011;31053;55.870;37.592;2022-12-07T12:03:14;24.92;;;5.78;;
45316;SDS011;31053;55.870;37.592;2022-12-07T12:06:25;16.13;;;5.85;;
45316;SDS011;31053;55.870;37.592;2022-12-07T12:09:34;17.50;;;6.65;;
45316;SDS011;31053;55.870;37.592;2022-12-07T12:16:39;12.57;;;5.00;;
45316;SDS011;31053;55.870;37.592;2022-12-07T12:19:59;11.90;;;5.03;;
45316;SDS011;31053;55.870;37.592;2022-12-07T12:23:15;14.95;;;5.80;;
45316;SDS011;31053;55.870;37.592;2022-12-07T12:26:59;16.45;;;5.68;;
45316;SDS011;31053;55.870;37.592;2022-12-07T12:30:33;14.13;;;5.95;;
45316;SDS011;31053;55.870;37.592;2022-12-07T12:33:53;14.23;;;6.10;;
45316;SDS011;31053;55.870;37.592;2022-12-07T12:37:02;13.60;;;5.95;;
45316;SDS011;31053;55.870;37.592;2022-12-07T12:40:39;14.55;;;5.28;;
45316;SDS011;31053;55.870;37.592;2022-12-07T12:48:27;10.85;;;6.03;;
45316;SDS011;31053;55.870;37.592;2022-12-07T12:51:52;22.15;;;6.18;;
45316;SDS011;31053;55.870;37.592;2022-12-07T13:01:38;15.30;;;6.07;;
45316;SDS011;31053;55.870;37.592;2022-12-07T13:05:14;25.55;;;7.18;;
45316;SDS011;31053;55.870;37.592;2022-12-07T13:09:36;16.85;;;5.57;;
45316;SDS011;31053;55.870;37.592;2022-12-07T13:12:41;19.23;;;7.00;;
45316;SDS011;31053;55.870;37.592;2022-12-07T13:22:47;20.35;;;6.97;;
45316;SDS011;31053;55.870;37.592;2022-12-07T13:25:59;16.88;;;6.45;;
45316;SDS011;31053;55.870;37.592;2022-12-07T13:29:16;18.10;;;6.22;;
45316;SDS011;31053;55.870;37.592;2022-12-07T13:32:32;17.27;;;6.53;;
45316;SDS011;31053;55.870;37.592;2022-12-07T13:35:37;23.65;;;7.78;;
45316;SDS011;31053;55.870;37.592;2022-12-07T13:38:47;16.60;;;6.60;;
45316;SDS011;31053;55.870;37.592;2022-12-07T13:41:58;17.42;;;6.50;;
45316;SDS011;31053;55.870;37.592;2022-12-07T13:45:22;17.92;;;6.38;;
45316;SDS011;31053;55.870;37.592;2022-12-07T13:48:56;18.60;;;7.93;;
45316;SDS011;31053;55.870;37.592;2022-12-07T13:52:15;22.02;;;6.88;;
45316;SDS011;31053;55.870;37.592;2022-12-07T13:55:26;21.27;;;7.25;;
45316;SDS011;31053;55.870;37.592;2022-12-07T14:01:37;19.10;;;7.00;;
45316;SDS011;31053;55.870;37.592;2022-12-07T14:04:41;18.75;;;6.05;;
45316;SDS011;31053;55.870;37.592;2022-12-07T14:11:02;20.73;;;6.25;;
45316;SDS011;31053;55.870;37.592;2022-12-07T14:14:46;17.92;;;7.28;;
45316;SDS011;31053;55.870;37.592;2022-12-07T14:17:54;18.15;;;5.60;;
45316;SDS011;31053;55.870;37.592;2022-12-07T14:21:03;19.50;;;7.65;;
45316;SDS011;31053;55.870;37.592;2022-12-07T14:24:19;27.92;;;7.43;;
45316;SDS011;31053;55.870;37.592;2022-12-07T14:27:30;17.27;;;7.03;;
45316;SDS011;31053;55.870;37.592;2022-12-07T14:30:41;22.95;;;7.47;;
45316;SDS011;31053;55.870;37.592;2022-12-07T14:33:49;16.98;;;7.15;;
45316;SDS011;31053;55.870;37.592;2022-12-07T14:36:57;21.35;;;7.85;;
45316;SDS011;31053;55.870;37.592;2022-12-07T14:40:11;16.35;;;6.65;;
45316;SDS011;31053;55.870;37.592;2022-12-07T14:43:24;25.25;;;7.57;;
45316;SDS011;31053;55.870;37.592;2022-12-07T14:52:58;26.88;;;7.18;;
45316;SDS011;31053;55.870;37.592;2022-12-07T14:56:11;19.85;;;6.95;;
45316;SDS011;31053;55.870;37.592;2022-12-07T14:59:19;19.70;;;6.55;;
45316;SDS011;31053;55.870;37.592;2022-12-07T15:02:30;18.50;;;7.15;;
45316;SDS011;31053;55.870;37.592;2022-12-07T15:05:54;15.90;;;5.50;;
45316;SDS011;31053;55.870;37.592;2022-12-07T15:09:02;15.48;;;6.68;;
45316;SDS011;31053;55.870;37.592;2022-12-07T15:12:10;19.33;;;8.18;;
45316;SDS011;31053;55.870;37.592;2022-12-07T15:15:22;20.10;;;7.18;;
45316;SDS011;31053;55.870;37.592;2022-12-07T15:18:27;19.70;;;6.07;;
45316;SDS011;31053;55.870;37.592;2022-12-07T15:21:57;25.23;;;6.50;;
45316;SDS011;31053;55.870;37.592;2022-12-07T15:25:06;18.40;;;6.50;;
45316;SDS011;31053;55.870;37.592;2022-12-07T15:28:14;20.33;;;7.00;;
45316;SDS011;31053;55.870;37.592;2022-12-07T15:31:25;18.05;;;7.80;;
45316;SDS011;31053;55.870;37.592;2022-12-07T15:34:51;18.20;;;6.75;;
45316;SDS011;31053;55.870;37.592;2022-12-07T15:38:12;16.98;;;6.50;;
45316;SDS011;31053;55.870;37.592;2022-12-07T15:41:20;23.02;;;7.35;;
45316;SDS011;31053;55.870;37.592;2022-12-07T15:45:04;28.98;;;6.68;;
45316;SDS011;31053;55.870;37.592;2022-12-07T15:48:10;21.20;;;6.03;;
45316;SDS011;31053;55.870;37.592;2022-12-07T15:51:17;25.52;;;6.72;;
45316;SDS011;31053;55.870;37.592;2022-12-07T15:54:28;20.38;;;7.10;;
45316;SDS011;31053;55.870;37.592;2022-12-07T15:57:38;19.02;;;7.28;;
45316;SDS011;31053;55.870;37.592;2022-12-07T16:00:51;26.55;;;8.05;;
45316;SDS011;31053;55.870;37.592;2022-12-07T16:03:59;22.30;;;8.63;;
45316;SDS011;31053;55.870;37.592;2022-12-07T16:07:21;21.55;;;7.80;;
45316;SDS011;31053;55.870;37.592;2022-12-07T16:10:25;26.90;;;6.68;;
45316;SDS011;31053;55.870;37.592;2022-12-07T16:13:30;19.40;;;6.68;;
45316;SDS011;31053;55.870;37.592;2022-12-07T16:16:35;18.08;;;6.93;;
45316;SDS011;31053;55.870;37.592;2022-12-07T16:19:49;18.45;;;6.15;;
45316;SDS011;31053;55.870;37.592;2022-12-07T16:22:59;21.60;;;7.22;;
45316;SDS011;31053;55.870;37.592;2022-12-07T16:26:13;18.17;;;6.30;;
45316;SDS011;31053;55.870;37.592;2022-12-07T16:29:22;19.33;;;6.70;;
45316;SDS011;31053;55.870;37.592;2022-12-07T16:32:32;19.27;;;6.38;;
45316;SDS011;31053;55.870;37.592;2022-12-07T16:35:39;44.70;;;7.65;;
45316;SDS011;31053;55.870;37.592;2022-12-07T16:38:47;14.43;;;5.63;;
45316;SDS011;31053;55.870;37.592;2022-12-07T16:41:55;21.92;;;7.60;;
45316;SDS011;31053;55.870;37.592;2022-12-07T16:45:00;24.20;;;7.35;;
45316;SDS011;31053;55.870;37.592;2022-12-07T16:48:05;22.63;;;7.83;;
45316;SDS011;31053;55.870;37.592;2022-12-07T16:51:13;24.15;;;7.63;;
45316;SDS011;31053;55.870;37.592;2022-12-07T16:54:26;14.35;;;7.25;;
45316;SDS011;31053;55.870;37.592;2022-12-07T16:57:39;21.60;;;6.90;;
45316;SDS011;31053;55.870;37.592;2022-12-07T17:00:45;19.63;;;7.57;;
45316;SDS011;31053;55.870;37.592;2022-12-07T17:03:50;21.83;;;7.25;;
45316;SDS011;31053;55.870;37.592;2022-12-07T17:06:58;16.10;;;6.03;;
45316;SDS011;31053;55.870;37.592;2022-12-07T17:10:04;20.73;;;7.03;;
45316;SDS011;31053;55.870;37.592;2022-12-07T17:13:11;19.00;;;6.70;;
45316;SDS011;31053;55.870;37.592;2022-12-07T17:16:37;19.70;;;7.25;;
45316;SDS011;31053;55.870;37.592;2022-12-07T17:19:41;21.27;;;6.90;;
45316;SDS011;31053;55.870;37.592;2022-12-07T17:22:46;18.20;;;6.43;;
45316;SDS011;31053;55.870;37.592;2022-12-07T17:25:51;24.15;;;7.53;;
45316;SDS011;31053;55.870;37.592;2022-12-07T17:28:57;28.42;;;7.20;;
45316;SDS011;31053;55.870;37.592;2022-12-07T17:32:03;23.95;;;8.68;;
45316;SDS011;31053;55.870;37.592;2022-12-07T17:35:08;24.80;;;7.68;;
45316;SDS011;31053;55.870;37.592;2022-12-07T17:38:13;20.05;;;6.82;;
45316;SDS011;31053;55.870;37.592;2022-12-07T17:41:20;36.53;;;8.25;;
45316;SDS011;31053;55.870;37.592;2022-12-07T17:45:08;21.10;;;7.57;;
45316;SDS011;31053;55.870;37.592;2022-12-07T17:48:14;15.52;;;5.95;;
45316;SDS011;31053;55.870;37.592;2022-12-07T17:51:18;21.35;;;7.32;;
45316;SDS011;31053;55.870;37.592;2022-12-07T17:54:42;17.55;;;7.38;;
45316;SDS011;31053;55.870;37.592;2022-12-07T17:57:47;26.15;;;7.35;;
45316;SDS011;31053;55.870;37.592;2022-12-07T18:00:52;20.20;;;7.13;;
45316;SDS011;31053;55.870;37.592;2022-12-07T18:03:56;19.88;;;5.93;;
45316;SDS011;31053;55.870;37.592;2022-12-07T18:07:01;24.52;;;6.80;;
45316;SDS011;31053;55.870;37.592;2022-12-07T18:10:08;17.20;;;6.28;;
45316;SDS011;31053;55.870;37.592;2022-12-07T18:13:15;20.55;;;5.78;;
45316;SDS011;31053;55.870;37.592;2022-12-07T18:16:38;14.80;;;5.95;;
45316;SDS011;31053;55.870;37.592;2022-12-07T18:19:42;22.83;;;5.95;;
45316;SDS011;31053;55.870;37.592;2022-12-07T18:22:47;13.15;;;5.38;;
45316;SDS011;31053;55.870;37.592;2022-12-07T18:25:52;23.48;;;7.85;;
45316;SDS011;31053;55.870;37.592;2022-12-07T18:28:57;22.40;;;7.20;;
45316;SDS011;31053;55.870;37.592;2022-12-07T18:32:03;14.82;;;6.38;;
45316;SDS011;31053;55.870;37.592;2022-12-07T18:35:09;17.02;;;7.05;;
45316;SDS011;31053;55.870;37.592;2022-12-07T18:38:14;16.25;;;6.03;;
45316;SDS011;31053;55.870;37.592;2022-12-07T18:41:19;16.70;;;6.47;;
45316;SDS011;31053;55.870;37.592;2022-12-07T18:44:24;18.13;;;6.13;;
45316;SDS011;31053;55.870;37.592;2022-12-07T18:47:28;32.08;;;7.35;;
45316;SDS011;31053;55.870;37.592;2022-12-07T18:50:33;15.23;;;5.57;;
45316;SDS011;31053;55.870;37.592;2022-12-07T18:53:38;16.42;;;5.90;;
45316;SDS011;31053;55.870;37.592;2022-12-07T18:56:43;17.40;;;7.32;;
45316;SDS011;31053;55.870;37.592;2022-12-07T18:59:48;23.17;;;6.30;;
45316;SDS011;31053;55.870;37.592;2022-12-07T19:02:53;17.08;;;5.55;;
45316;SDS011;31053;55.870;37.592;2022-12-07T19:06:09;21.25;;;7.72;;
45316;SDS011;31053;55.870;37.592;2022-12-07T19:09:14;21.38;;;6.72;;
45316;SDS011;31053;55.870;37.592;2022-12-07T19:12:20;17.52;;;6.10;;
45316;SDS011;31053;55.870;37.592;2022-12-07T19:15:24;16.30;;;5.38;;
45316;SDS011;31053;55.870;37.592;2022-12-07T19:18:29;12.35;;;4.15;;
45316;SDS011;31053;55.870;37.592;2022-12-07T19:21:34;17.00;;;6.07;;
45316;SDS011;31053;55.870;37.592;2022-12-07T19:24:39;13.38;;;5.13;;
45316;SDS011;31053;55.870;37.592;2022-12-07T19:27:44;21.88;;;5.60;;
45316;SDS011;31053;55.870;37.592;2022-12-07T19:30:48;18.35;;;5.45;;
45316;SDS011;31053;55.870;37.592;2022-12-07T19:33:53;25.27;;;7.82;;
45316;SDS011;31053;55.870;37.592;2022-12-07T19:36:58;27.40;;;6.95;;
45316;SDS011;31053;55.870;37.592;2022-12-07T19:40:04;11.98;;;5.78;;
45316;SDS011;31053;55.870;37.592;2022-12-07T19:43:12;15.82;;;6.25;;
45316;SDS011;31053;55.870;37.592;2022-12-07T19:46:17;14.63;;;5.82;;
45316;SDS011;31053;55.870;37.592;2022-12-07T19:49:22;20.70;;;6.20;;
45316;SDS011;31053;55.870;37.592;2022-12-07T19:52:29;21.25;;;6.30;;
45316;SDS011;31053;55.870;37.592;2022-12-07T19:55:37;13.68;;;4.78;;
45316;SDS011;31053;55.870;37.592;2022-12-07T19:58:43;12.60;;;4.78;;
45316;SDS011;31053;55.870;37.592;2022-12-07T20:01:48;21.30;;;5.28;;
45316;SDS011;31053;55.870;37.592;2022-12-07T20:04:56;17.80;;;7.07;;
45316;SDS011;31053;55.870;37.592;2022-12-07T20:08:07;19.58;;;6.03;;
45316;SDS011;31053;55.870;37.592;2022-12-07T20:11:12;20.90;;;6.13;;
45316;SDS011;31053;55.870;37.592;2022-12-07T20:14:36;19.00;;;5.90;;
45316;SDS011;31053;55.870;37.592;2022-12-07T20:17:41;16.05;;;5.80;;
45316;SDS011;31053;55.870;37.592;2022-12-07T20:20:52;16.50;;;5.25;;
45316;SDS011;31053;55.870;37.592;2022-12-07T20:24:01;17.38;;;6.47;;
45316;SDS011;31053;55.870;37.592;2022-12-07T20:27:07;15.88;;;6.70;;
45316;SDS011;31053;55.870;37.592;2022-12-07T20:30:12;23.58;;;7.43;;
45316;SDS011;31053;55.870;37.592;2022-12-07T20:33:18;24.27;;;7.05;;
45316;SDS011;31053;55.870;37.592;2022-12-07T20:36:25;15.38;;;5.20;;
45316;SDS011;31053;55.870;37.592;2022-12-07T20:39:30;13.33;;;5.87;;
45316;SDS011;31053;55.870;37.592;2022-12-07T20:42:35;15.43;;;5.60;;
45316;SDS011;31053;55.870;37.592;2022-12-07T20:45:43;19.05;;;6.10;;
45316;SDS011;31053;55.870;37.592;2022-12-07T20:51:52;10.95;;;4.45;;
45316;SDS011;31053;55.870;37.592;2022-12-07T20:54:57;22.10;;;6.53;;
45316;SDS011;31053;55.870;37.592;2022-12-07T20:58:02;12.85;;;5.90;;
45316;SDS011;31053;55.870;37.592;2022-12-07T21:01:06;18.90;;;5.68;;
45316;SDS011;31053;55.870;37.592;2022-12-07T21:04:12;16.85;;;5.35;;
45316;SDS011;31053;55.870;37.592;2022-12-07T21:07:18;15.77;;;6.28;;
45316;SDS011;31053;55.870;37.592;2022-12-07T21:10:22;16.90;;;5.15;;
45316;SDS011;31053;55.870;37.592;2022-12-07T21:13:28;12.82;;;5.45;;
45316;SDS011;31053;55.870;37.592;2022-12-07T21:16:33;19.55;;;5.88;;
45316;SDS011;31053;55.870;37.592;2022-12-07T21:19:38;15.57;;;6.18;;